sensor_id;sensor_type;location;lat;lon;timestamp;P1;durP1;ratioP1;P2;durP2;ratioP2
22871;SDS011;11603;44.910;8.630;2023-04-27T00:02:07;7.05;;;2.50;;
22871;SDS011;11603;44.910;8.630;2023-04-27T00:04:33;6.38;;;2.17;;
22871;SDS011;11603;44.910;8.630;2023-04-27T00:06:58;5.75;;;2.40;;
22871;SDS011;11603;44.910;8.630;2023-04-27T00:09:24;6.28;;;2.65;;
22871;SDS011;11603;44.910;8.630;2023-04-27T00:11:49;8.10;;;2.60;;
22871;SDS011;11603;44.910;8.630;2023-04-27T00:14:15;8.38;;;2.42;;
22871;SDS011;11603;44.910;8.630;2023-04-27T00:16:40;4.68;;;2.50;;
22871;SDS011;11603;44.910;8.630;2023-04-27T00:19:06;6.63;;;3.08;;
22871;SDS011;11603;44.910;8.630;2023-04-27T00:21:33;9.15;;;2.88;;
22871;SDS011;11603;44.910;8.630;2023-04-27T00:23:59;6.20;;;2.72;;
22871;SDS011;11603;44.910;8.630;2023-04-27T00:26:24;5.80;;;2.70;;
22871;SDS011;11603;44.910;8.630;2023-04-27T00:28:51;6.15;;;3.05;;
22871;SDS011;11603;44.910;8.630;2023-04-27T00:31:17;4.68;;;2.65;;
22871;SDS011;11603;44.910;8.630;2023-04-27T00:33:43;4.35;;;2.40;;
22871;SDS011;11603;44.910;8.630;2023-04-27T00:36:08;7.28;;;3.08;;
22871;SDS011;11603;44.910;8.630;2023-04-27T00:38:34;5.50;;;3.05;;
22871;SDS011;11603;44.910;8.630;2023-04-27T00:41:00;6.30;;;2.92;;
22871;SDS011;11603;44.910;8.630;2023-04-27T00:43:26;7.85;;;2.97;;
22871;SDS011;11603;44.910;8.630;2023-04-27T00:45:53;5.70;;;2.90;;
22871;SDS011;11603;44.910;8.630;2023-04-27T00:48:18;5.45;;;2.70;;
22871;SDS011;11603;44.910;8.630;2023-04-27T00:50:44;7.28;;;2.75;;
22871;SDS011;11603;44.910;8.630;2023-04-27T00:53:10;4.20;;;2.50;;
22871;SDS011;11603;44.910;8.630;2023-04-27T00:55:36;6.30;;;2.65;;
22871;SDS011;11603;44.910;8.630;2023-04-27T00:58:02;5.78;;;2.42;;
22871;SDS011;11603;44.910;8.630;2023-04-27T01:00:27;6.88;;;2.60;;
22871;SDS011;11603;44.910;8.630;2023-04-27T01:02:53;6.43;;;2.72;;
22871;SDS011;11603;44.910;8.630;2023-04-27T01:05:19;4.93;;;2.53;;
22871;SDS011;11603;44.910;8.630;2023-04-27T01:07:48;5.18;;;2.80;;
22871;SDS011;11603;44.910;8.630;2023-04-27T01:10:14;4.88;;;2.40;;
22871;SDS011;11603;44.910;8.630;2023-04-27T01:12:40;4.88;;;2.75;;
22871;SDS011;11603;44.910;8.630;2023-04-27T01:15:06;7.80;;;2.70;;
22871;SDS011;11603;44.910;8.630;2023-04-27T01:17:32;7.30;;;2.65;;
22871;SDS011;11603;44.910;8.630;2023-04-27T01:19:57;4.32;;;2.30;;
22871;SDS011;11603;44.910;8.630;2023-04-27T01:22:23;4.43;;;2.20;;
22871;SDS011;11603;44.910;8.630;2023-04-27T01:24:51;7.00;;;2.45;;
22871;SDS011;11603;44.910;8.630;2023-04-27T01:27:17;4.47;;;2.50;;
22871;SDS011;11603;44.910;8.630;2023-04-27T01:29:43;6.90;;;2.83;;
22871;SDS011;11603;44.910;8.630;2023-04-27T01:32:08;4.53;;;2.60;;
22871;SDS011;11603;44.910;8.630;2023-04-27T01:34:34;6.97;;;2.50;;
22871;SDS011;11603;44.910;8.630;2023-04-27T01:37:00;6.63;;;2.65;;
22871;SDS011;11603;44.910;8.630;2023-04-27T01:39:25;6.95;;;2.60;;
22871;SDS011;11603;44.910;8.630;2023-04-27T01:41:51;7.10;;;2.50;;
22871;SDS011;11603;44.910;8.630;2023-04-27T01:44:16;5.15;;;2.58;;
22871;SDS011;11603;44.910;8.630;2023-04-27T01:46:43;4.82;;;2.60;;
22871;SDS011;11603;44.910;8.630;2023-04-27T01:49:08;5.80;;;2.63;;
22871;SDS011;11603;44.910;8.630;2023-04-27T01:51:34;5.82;;;2.33;;
22871;SDS011;11603;44.910;8.630;2023-04-27T01:53:59;7.63;;;2.83;;
22871;SDS011;11603;44.910;8.630;2023-04-27T01:56:25;5.15;;;2.35;;
22871;SDS011;11603;44.910;8.630;2023-04-27T01:58:52;5.65;;;2.40;;
22871;SDS011;11603;44.910;8.630;2023-04-27T02:01:17;4.38;;;2.20;;
22871;SDS011;11603;44.910;8.630;2023-04-27T02:03:43;4.88;;;2.42;;
22871;SDS011;11603;44.910;8.630;2023-04-27T02:06:10;6.57;;;2.47;;
22871;SDS011;11603;44.910;8.630;2023-04-27T02:08:37;5.05;;;2.60;;
22871;SDS011;11603;44.910;8.630;2023-04-27T02:11:03;5.07;;;2.28;;
22871;SDS011;11603;44.910;8.630;2023-04-27T02:13:28;4.78;;;2.42;;
22871;SDS011;11603;44.910;8.630;2023-04-27T02:15:54;8.57;;;2.95;;
22871;SDS011;11603;44.910;8.630;2023-04-27T02:18:20;5.70;;;2.47;;
22871;SDS011;11603;44.910;8.630;2023-04-27T02:20:46;9.38;;;2.95;;
22871;SDS011;11603;44.910;8.630;2023-04-27T02:23:11;8.85;;;3.13;;
22871;SDS011;11603;44.910;8.630;2023-04-27T02:25:37;5.85;;;3.22;;
22871;SDS011;11603;44.910;8.630;2023-04-27T02:28:03;5.13;;;2.90;;
22871;SDS011;11603;44.910;8.630;2023-04-27T02:30:28;7.85;;;3.03;;
22871;SDS011;11603;44.910;8.630;2023-04-27T02:32:57;4.78;;;3.10;;
22871;SDS011;11603;44.910;8.630;2023-04-27T02:35:24;5.00;;;3.25;;
22871;SDS011;11603;44.910;8.630;2023-04-27T02:37:50;9.05;;;3.10;;
22871;SDS011;11603;44.910;8.630;2023-04-27T02:40:15;6.03;;;3.20;;
22871;SDS011;11603;44.910;8.630;2023-04-27T02:42:40;6.93;;;3.13;;
22871;SDS011;11603;44.910;8.630;2023-04-27T02:45:09;4.85;;;3.13;;
22871;SDS011;11603;44.910;8.630;2023-04-27T02:47:35;5.80;;;2.90;;
22871;SDS011;11603;44.910;8.630;2023-04-27T02:50:00;5.93;;;3.10;;
22871;SDS011;11603;44.910;8.630;2023-04-27T02:52:26;9.05;;;3.40;;
22871;SDS011;11603;44.910;8.630;2023-04-27T02:54:52;9.48;;;3.38;;
22871;SDS011;11603;44.910;8.630;2023-04-27T02:57:17;8.93;;;3.80;;
22871;SDS011;11603;44.910;8.630;2023-04-27T02:59:43;5.75;;;3.45;;
22871;SDS011;11603;44.910;8.630;2023-04-27T03:02:09;5.82;;;4.03;;
22871;SDS011;11603;44.910;8.630;2023-04-27T03:04:34;5.72;;;3.75;;
22871;SDS011;11603;44.910;8.630;2023-04-27T03:07:01;7.53;;;4.00;;
22871;SDS011;11603;44.910;8.630;2023-04-27T03:09:28;6.53;;;4.03;;
22871;SDS011;11603;44.910;8.630;2023-04-27T03:11:56;8.45;;;3.38;;
22871;SDS011;11603;44.910;8.630;2023-04-27T03:14:21;13.60;;;4.47;;
22871;SDS011;11603;44.910;8.630;2023-04-27T03:16:47;6.22;;;3.50;;
22871;SDS011;11603;44.910;8.630;2023-04-27T03:19:13;9.27;;;3.75;;
22871;SDS011;11603;44.910;8.630;2023-04-27T03:21:38;5.65;;;3.33;;
22871;SDS011;11603;44.910;8.630;2023-04-27T03:24:04;5.97;;;3.50;;
22871;SDS011;11603;44.910;8.630;2023-04-27T03:26:29;9.13;;;3.75;;
22871;SDS011;11603;44.910;8.630;2023-04-27T03:28:56;7.68;;;3.22;;
22871;SDS011;11603;44.910;8.630;2023-04-27T03:31:21;5.53;;;3.35;;
22871;SDS011;11603;44.910;8.630;2023-04-27T03:33:47;6.30;;;3.28;;
22871;SDS011;11603;44.910;8.630;2023-04-27T03:36:13;7.70;;;3.17;;
22871;SDS011;11603;44.910;8.630;2023-04-27T03:38:40;6.88;;;3.35;;
22871;SDS011;11603;44.910;8.630;2023-04-27T03:41:06;6.80;;;3.20;;
22871;SDS011;11603;44.910;8.630;2023-04-27T03:43:34;7.47;;;3.45;;
22871;SDS011;11603;44.910;8.630;2023-04-27T03:46:01;8.32;;;3.90;;
22871;SDS011;11603;44.910;8.630;2023-04-27T03:48:26;7.00;;;3.67;;
22871;SDS011;11603;44.910;8.630;2023-04-27T03:50:53;5.32;;;3.38;;
22871;SDS011;11603;44.910;8.630;2023-04-27T03:53:19;9.15;;;3.40;;
22871;SDS011;11603;44.910;8.630;2023-04-27T03:55:44;6.32;;;3.40;;
22871;SDS011;11603;44.910;8.630;2023-04-27T03:58:10;9.98;;;3.75;;
22871;SDS011;11603;44.910;8.630;2023-04-27T04:00:44;10.38;;;3.88;;
22871;SDS011;11603;44.910;8.630;2023-04-27T04:03:10;7.20;;;3.30;;
22871;SDS011;11603;44.910;8.630;2023-04-27T04:05:36;6.57;;;3.20;;
22871;SDS011;11603;44.910;8.630;2023-04-27T04:08:03;8.15;;;3.10;;
22871;SDS011;11603;44.910;8.630;2023-04-27T04:10:28;5.85;;;3.70;;
22871;SDS011;11603;44.910;8.630;2023-04-27T04:12:54;7.70;;;3.22;;
22871;SDS011;11603;44.910;8.630;2023-04-27T04:15:20;10.48;;;3.20;;
22871;SDS011;11603;44.910;8.630;2023-04-27T04:17:48;5.65;;;2.95;;
22871;SDS011;11603;44.910;8.630;2023-04-27T04:20:14;7.90;;;4.15;;
22871;SDS011;11603;44.910;8.630;2023-04-27T04:22:40;8.73;;;3.53;;
22871;SDS011;11603;44.910;8.630;2023-04-27T04:25:05;9.77;;;4.55;;
22871;SDS011;11603;44.910;8.630;2023-04-27T04:27:32;12.00;;;4.35;;
22871;SDS011;11603;44.910;8.630;2023-04-27T04:29:58;11.23;;;4.28;;
22871;SDS011;11603;44.910;8.630;2023-04-27T04:32:29;9.52;;;3.80;;
22871;SDS011;11603;44.910;8.630;2023-04-27T04:34:55;8.85;;;3.90;;
22871;SDS011;11603;44.910;8.630;2023-04-27T04:37:22;5.55;;;3.40;;
22871;SDS011;11603;44.910;8.630;2023-04-27T04:39:49;7.22;;;3.90;;
22871;SDS011;11603;44.910;8.630;2023-04-27T04:42:14;4.78;;;3.28;;
22871;SDS011;11603;44.910;8.630;2023-04-27T04:44:41;4.32;;;3.30;;
22871;SDS011;11603;44.910;8.630;2023-04-27T04:47:07;6.70;;;3.63;;
22871;SDS011;11603;44.910;8.630;2023-04-27T04:49:34;5.38;;;2.95;;
22871;SDS011;11603;44.910;8.630;2023-04-27T04:52:00;9.02;;;3.50;;
22871;SDS011;11603;44.910;8.630;2023-04-27T04:54:25;8.68;;;3.60;;
22871;SDS011;11603;44.910;8.630;2023-04-27T04:56:53;8.23;;;4.20;;
22871;SDS011;11603;44.910;8.630;2023-04-27T04:59:18;6.38;;;3.28;;
22871;SDS011;11603;44.910;8.630;2023-04-27T05:01:44;6.85;;;3.40;;
22871;SDS011;11603;44.910;8.630;2023-04-27T05:04:09;8.30;;;3.20;;
22871;SDS011;11603;44.910;8.630;2023-04-27T05:06:35;14.27;;;3.50;;
22871;SDS011;11603;44.910;8.630;2023-04-27T05:09:01;8.18;;;3.15;;
22871;SDS011;11603;44.910;8.630;2023-04-27T05:11:26;6.82;;;3.70;;
22871;SDS011;11603;44.910;8.630;2023-04-27T05:13:52;8.35;;;3.85;;
22871;SDS011;11603;44.910;8.630;2023-04-27T05:16:17;8.30;;;3.53;;
22871;SDS011;11603;44.910;8.630;2023-04-27T05:18:43;7.43;;;3.70;;
22871;SDS011;11603;44.910;8.630;2023-04-27T05:21:17;11.10;;;3.83;;
22871;SDS011;11603;44.910;8.630;2023-04-27T05:23:45;10.07;;;4.30;;
22871;SDS011;11603;44.910;8.630;2023-04-27T05:26:14;9.25;;;4.53;;
22871;SDS011;11603;44.910;8.630;2023-04-27T05:28:40;6.28;;;4.07;;
22871;SDS011;11603;44.910;8.630;2023-04-27T05:31:06;6.60;;;3.80;;
22871;SDS011;11603;44.910;8.630;2023-04-27T05:33:32;7.70;;;3.70;;
22871;SDS011;11603;44.910;8.630;2023-04-27T05:35:58;7.30;;;3.85;;
22871;SDS011;11603;44.910;8.630;2023-04-27T05:38:24;10.57;;;4.47;;
22871;SDS011;11603;44.910;8.630;2023-04-27T05:40:53;9.63;;;4.43;;
22871;SDS011;11603;44.910;8.630;2023-04-27T05:43:21;10.68;;;4.07;;
22871;SDS011;11603;44.910;8.630;2023-04-27T05:45:49;8.70;;;4.20;;
22871;SDS011;11603;44.910;8.630;2023-04-27T05:48:15;8.23;;;4.38;;
22871;SDS011;11603;44.910;8.630;2023-04-27T05:50:40;8.23;;;3.97;;
22871;SDS011;11603;44.910;8.630;2023-04-27T05:53:09;7.40;;;4.47;;
22871;SDS011;11603;44.910;8.630;2023-04-27T05:55:34;7.97;;;4.22;;
22871;SDS011;11603;44.910;8.630;2023-04-27T05:58:01;10.68;;;4.32;;
22871;SDS011;11603;44.910;8.630;2023-04-27T06:00:27;7.00;;;4.43;;
22871;SDS011;11603;44.910;8.630;2023-04-27T06:02:53;8.15;;;4.38;;
22871;SDS011;11603;44.910;8.630;2023-04-27T06:05:19;9.55;;;4.68;;
22871;SDS011;11603;44.910;8.630;2023-04-27T06:07:49;12.88;;;4.75;;
22871;SDS011;11603;44.910;8.630;2023-04-27T06:10:14;10.40;;;4.32;;
22871;SDS011;11603;44.910;8.630;2023-04-27T06:12:40;7.90;;;4.40;;
22871;SDS011;11603;44.910;8.630;2023-04-27T06:15:07;10.55;;;4.70;;
22871;SDS011;11603;44.910;8.630;2023-04-27T06:17:34;8.75;;;4.80;;
22871;SDS011;11603;44.910;8.630;2023-04-27T06:20:00;9.52;;;5.43;;
22871;SDS011;11603;44.910;8.630;2023-04-27T06:22:26;11.45;;;4.72;;
22871;SDS011;11603;44.910;8.630;2023-04-27T06:24:53;7.35;;;4.57;;
22871;SDS011;11603;44.910;8.630;2023-04-27T06:27:19;8.32;;;4.47;;
22871;SDS011;11603;44.910;8.630;2023-04-27T06:29:44;10.82;;;4.65;;
22871;SDS011;11603;44.910;8.630;2023-04-27T06:32:10;8.57;;;4.68;;
22871;SDS011;11603;44.910;8.630;2023-04-27T06:34:36;11.95;;;5.03;;
22871;SDS011;11603;44.910;8.630;2023-04-27T06:37:01;7.78;;;4.55;;
22871;SDS011;11603;44.910;8.630;2023-04-27T06:39:27;11.50;;;4.68;;
22871;SDS011;11603;44.910;8.630;2023-04-27T06:41:52;17.95;;;5.18;;
22871;SDS011;11603;44.910;8.630;2023-04-27T06:44:18;12.18;;;5.00;;
22871;SDS011;11603;44.910;8.630;2023-04-27T06:46:45;11.77;;;4.70;;
22871;SDS011;11603;44.910;8.630;2023-04-27T06:49:11;12.23;;;5.03;;
22871;SDS011;11603;44.910;8.630;2023-04-27T06:51:36;14.52;;;5.40;;
22871;SDS011;11603;44.910;8.630;2023-04-27T06:54:02;15.60;;;5.47;;
22871;SDS011;11603;44.910;8.630;2023-04-27T06:56:28;14.00;;;4.70;;
22871;SDS011;11603;44.910;8.630;2023-04-27T06:58:53;10.70;;;3.90;;
22871;SDS011;11603;44.910;8.630;2023-04-27T07:01:18;6.53;;;3.65;;
22871;SDS011;11603;44.910;8.630;2023-04-27T07:03:44;10.90;;;4.47;;
22871;SDS011;11603;44.910;8.630;2023-04-27T07:06:10;9.07;;;4.50;;
22871;SDS011;11603;44.910;8.630;2023-04-27T07:08:35;10.68;;;4.03;;
22871;SDS011;11603;44.910;8.630;2023-04-27T07:11:01;14.52;;;4.38;;
22871;SDS011;11603;44.910;8.630;2023-04-27T07:13:27;9.05;;;4.13;;
22871;SDS011;11603;44.910;8.630;2023-04-27T07:15:54;10.68;;;4.22;;
22871;SDS011;11603;44.910;8.630;2023-04-27T07:18:23;11.25;;;5.07;;
22871;SDS011;11603;44.910;8.630;2023-04-27T07:20:48;11.95;;;4.85;;
22871;SDS011;11603;44.910;8.630;2023-04-27T07:23:14;9.63;;;4.43;;
22871;SDS011;11603;44.910;8.630;2023-04-27T07:25:40;11.40;;;4.22;;
22871;SDS011;11603;44.910;8.630;2023-04-27T07:28:06;8.90;;;4.40;;
22871;SDS011;11603;44.910;8.630;2023-04-27T07:30:31;11.15;;;4.25;;
22871;SDS011;11603;44.910;8.630;2023-04-27T07:33:00;8.43;;;3.95;;
22871;SDS011;11603;44.910;8.630;2023-04-27T07:35:25;8.75;;;4.38;;
22871;SDS011;11603;44.910;8.630;2023-04-27T07:37:51;17.25;;;4.13;;
22871;SDS011;11603;44.910;8.630;2023-04-27T07:40:17;15.43;;;5.07;;
22871;SDS011;11603;44.910;8.630;2023-04-27T07:42:43;11.13;;;3.88;;
22871;SDS011;11603;44.910;8.630;2023-04-27T07:45:10;10.10;;;4.40;;
22871;SDS011;11603;44.910;8.630;2023-04-27T07:47:37;14.30;;;4.82;;
22871;SDS011;11603;44.910;8.630;2023-04-27T07:50:03;8.25;;;3.72;;
22871;SDS011;11603;44.910;8.630;2023-04-27T07:52:31;8.77;;;4.68;;
22871;SDS011;11603;44.910;8.630;2023-04-27T07:54:57;9.27;;;4.68;;
22871;SDS011;11603;44.910;8.630;2023-04-27T07:57:22;9.95;;;4.43;;
22871;SDS011;11603;44.910;8.630;2023-04-27T07:59:48;8.85;;;5.03;;
22871;SDS011;11603;44.910;8.630;2023-04-27T08:02:13;11.23;;;4.38;;
22871;SDS011;11603;44.910;8.630;2023-04-27T08:04:39;7.68;;;4.63;;
22871;SDS011;11603;44.910;8.630;2023-04-27T08:07:04;9.98;;;4.57;;
22871;SDS011;11603;44.910;8.630;2023-04-27T08:09:30;7.70;;;4.72;;
22871;SDS011;11603;44.910;8.630;2023-04-27T08:11:58;10.60;;;5.05;;
22871;SDS011;11603;44.910;8.630;2023-04-27T08:14:24;13.65;;;4.72;;
22871;SDS011;11603;44.910;8.630;2023-04-27T08:16:50;9.43;;;4.47;;
22871;SDS011;11603;44.910;8.630;2023-04-27T08:19:16;11.55;;;5.30;;
22871;SDS011;11603;44.910;8.630;2023-04-27T08:21:42;9.35;;;4.97;;
22871;SDS011;11603;44.910;8.630;2023-04-27T08:24:08;10.23;;;5.40;;
22871;SDS011;11603;44.910;8.630;2023-04-27T08:26:34;7.45;;;5.00;;
22871;SDS011;11603;44.910;8.630;2023-04-27T08:29:00;11.15;;;5.28;;
22871;SDS011;11603;44.910;8.630;2023-04-27T08:31:27;12.52;;;6.72;;
22871;SDS011;11603;44.910;8.630;2023-04-27T08:33:56;13.00;;;6.60;;
22871;SDS011;11603;44.910;8.630;2023-04-27T08:36:22;10.63;;;6.65;;
22871;SDS011;11603;44.910;8.630;2023-04-27T08:38:49;11.18;;;7.20;;
22871;SDS011;11603;44.910;8.630;2023-04-27T08:41:20;13.55;;;7.63;;
22871;SDS011;11603;44.910;8.630;2023-04-27T08:43:47;14.98;;;8.50;;
22871;SDS011;11603;44.910;8.630;2023-04-27T08:46:17;12.23;;;8.25;;
22871;SDS011;11603;44.910;8.630;2023-04-27T08:48:44;16.55;;;9.13;;
22871;SDS011;11603;44.910;8.630;2023-04-27T08:51:10;11.48;;;9.70;;
22871;SDS011;11603;44.910;8.630;2023-04-27T08:53:42;15.48;;;10.20;;
22871;SDS011;11603;44.910;8.630;2023-04-27T08:56:19;14.85;;;11.60;;
22871;SDS011;11603;44.910;8.630;2023-04-27T08:58:49;16.20;;;11.55;;
22871;SDS011;11603;44.910;8.630;2023-04-27T09:01:16;15.82;;;10.90;;
22871;SDS011;11603;44.910;8.630;2023-04-27T09:03:42;16.10;;;12.60;;
22871;SDS011;11603;44.910;8.630;2023-04-27T09:06:10;16.35;;;11.75;;
22871;SDS011;11603;44.910;8.630;2023-04-27T09:08:40;18.17;;;12.25;;
22871;SDS011;11603;44.910;8.630;2023-04-27T09:11:05;16.13;;;12.50;;
22871;SDS011;11603;44.910;8.630;2023-04-27T09:13:34;18.70;;;12.75;;
22871;SDS011;11603;44.910;8.630;2023-04-27T09:16:03;19.27;;;12.73;;
22871;SDS011;11603;44.910;8.630;2023-04-27T09:18:30;17.83;;;12.50;;
22871;SDS011;11603;44.910;8.630;2023-04-27T09:21:00;18.17;;;13.00;;
22871;SDS011;11603;44.910;8.630;2023-04-27T09:23:32;17.17;;;12.48;;
22871;SDS011;11603;44.910;8.630;2023-04-27T09:26:00;19.27;;;13.20;;
22871;SDS011;11603;44.910;8.630;2023-04-27T09:28:28;21.40;;;13.85;;
22871;SDS011;11603;44.910;8.630;2023-04-27T09:30:58;19.00;;;13.27;;
22871;SDS011;11603;44.910;8.630;2023-04-27T09:33:26;20.00;;;13.77;;
22871;SDS011;11603;44.910;8.630;2023-04-27T09:35:52;20.85;;;13.50;;
22871;SDS011;11603;44.910;8.630;2023-04-27T09:38:19;21.42;;;14.63;;
22871;SDS011;11603;44.910;8.630;2023-04-27T09:40:46;19.38;;;13.85;;
22871;SDS011;11603;44.910;8.630;2023-04-27T09:43:12;18.10;;;14.88;;
22871;SDS011;11603;44.910;8.630;2023-04-27T09:45:38;20.52;;;15.05;;
22871;SDS011;11603;44.910;8.630;2023-04-27T09:48:07;20.73;;;14.70;;
22871;SDS011;11603;44.910;8.630;2023-04-27T09:50:34;18.27;;;14.38;;
22871;SDS011;11603;44.910;8.630;2023-04-27T09:53:01;25.02;;;14.55;;
22871;SDS011;11603;44.910;8.630;2023-04-27T09:55:31;19.23;;;14.32;;
22871;SDS011;11603;44.910;8.630;2023-04-27T10:01:03;18.48;;;14.30;;
22871;SDS011;11603;44.910;8.630;2023-04-27T10:09:23;21.08;;;15.13;;
22871;SDS011;11603;44.910;8.630;2023-04-27T10:11:50;19.60;;;13.73;;
22871;SDS011;11603;44.910;8.630;2023-04-27T10:14:17;17.85;;;12.57;;
22871;SDS011;11603;44.910;8.630;2023-04-27T10:19:23;17.17;;;12.75;;
22871;SDS011;11603;44.910;8.630;2023-04-27T10:21:53;17.85;;;12.20;;
22871;SDS011;11603;44.910;8.630;2023-04-27T10:24:37;17.77;;;12.15;;
22871;SDS011;11603;44.910;8.630;2023-04-27T10:27:10;18.60;;;12.10;;
22871;SDS011;11603;44.910;8.630;2023-04-27T10:29:43;18.70;;;12.15;;
22871;SDS011;11603;44.910;8.630;2023-04-27T10:32:11;15.80;;;11.95;;
22871;SDS011;11603;44.910;8.630;2023-04-27T10:34:38;16.90;;;12.40;;
22871;SDS011;11603;44.910;8.630;2023-04-27T10:37:08;20.95;;;12.13;;
22871;SDS011;11603;44.910;8.630;2023-04-27T10:39:42;19.77;;;11.55;;
22871;SDS011;11603;44.910;8.630;2023-04-27T10:42:08;15.77;;;11.93;;
22871;SDS011;11603;44.910;8.630;2023-04-27T10:44:35;22.10;;;11.68;;
22871;SDS011;11603;44.910;8.630;2023-04-27T10:47:11;17.02;;;10.88;;
22871;SDS011;11603;44.910;8.630;2023-04-27T10:49:38;16.80;;;12.15;;
22871;SDS011;11603;44.910;8.630;2023-04-27T10:52:03;18.27;;;11.77;;
22871;SDS011;11603;44.910;8.630;2023-04-27T10:54:30;14.88;;;11.40;;
22871;SDS011;11603;44.910;8.630;2023-04-27T10:59:29;17.67;;;10.82;;
22871;SDS011;11603;44.910;8.630;2023-04-27T11:01:55;17.50;;;11.70;;
22871;SDS011;11603;44.910;8.630;2023-04-27T11:04:20;15.35;;;10.65;;
22871;SDS011;11603;44.910;8.630;2023-04-27T11:06:46;18.58;;;11.30;;
22871;SDS011;11603;44.910;8.630;2023-04-27T11:09:12;17.40;;;11.05;;
22871;SDS011;11603;44.910;8.630;2023-04-27T11:11:42;16.85;;;10.98;;
22871;SDS011;11603;44.910;8.630;2023-04-27T11:14:12;14.30;;;9.68;;
22871;SDS011;11603;44.910;8.630;2023-04-27T11:16:44;16.73;;;9.77;;
22871;SDS011;11603;44.910;8.630;2023-04-27T11:19:10;13.45;;;9.10;;
22871;SDS011;11603;44.910;8.630;2023-04-27T11:21:36;13.85;;;8.65;;
22871;SDS011;11603;44.910;8.630;2023-04-27T11:24:02;14.32;;;8.63;;
22871;SDS011;11603;44.910;8.630;2023-04-27T11:26:29;14.35;;;8.77;;
22871;SDS011;11603;44.910;8.630;2023-04-27T11:29:04;13.20;;;8.95;;
22871;SDS011;11603;44.910;8.630;2023-04-27T11:31:48;12.93;;;7.93;;
22871;SDS011;11603;44.910;8.630;2023-04-27T11:34:19;14.10;;;8.00;;
22871;SDS011;11603;44.910;8.630;2023-04-27T11:36:59;10.82;;;8.00;;
22871;SDS011;11603;44.910;8.630;2023-04-27T11:39:26;13.88;;;8.82;;
22871;SDS011;11603;44.910;8.630;2023-04-27T11:41:52;11.88;;;7.95;;
22871;SDS011;11603;44.910;8.630;2023-04-27T11:44:23;14.70;;;8.70;;
22871;SDS011;11603;44.910;8.630;2023-04-27T11:46:50;17.45;;;8.55;;
22871;SDS011;11603;44.910;8.630;2023-04-27T11:49:17;18.27;;;8.70;;
22871;SDS011;11603;44.910;8.630;2023-04-27T11:51:44;11.85;;;8.50;;
22871;SDS011;11603;44.910;8.630;2023-04-27T11:54:10;14.15;;;8.77;;
22871;SDS011;11603;44.910;8.630;2023-04-27T11:56:37;14.23;;;8.32;;
22871;SDS011;11603;44.910;8.630;2023-04-27T11:59:04;16.45;;;8.85;;
22871;SDS011;11603;44.910;8.630;2023-04-27T12:01:33;13.65;;;9.40;;
22871;SDS011;11603;44.910;8.630;2023-04-27T12:03:59;17.63;;;9.13;;
22871;SDS011;11603;44.910;8.630;2023-04-27T12:06:26;15.75;;;9.52;;
22871;SDS011;11603;44.910;8.630;2023-04-27T12:08:56;17.52;;;9.23;;
22871;SDS011;11603;44.910;8.630;2023-04-27T12:11:22;12.88;;;8.00;;
22871;SDS011;11603;44.910;8.630;2023-04-27T12:13:49;15.00;;;8.85;;
22871;SDS011;11603;44.910;8.630;2023-04-27T12:16:15;17.60;;;9.07;;
22871;SDS011;11603;44.910;8.630;2023-04-27T12:18:40;15.93;;;8.75;;
22871;SDS011;11603;44.910;8.630;2023-04-27T12:21:05;14.70;;;9.07;;
22871;SDS011;11603;44.910;8.630;2023-04-27T12:23:32;15.18;;;8.65;;
22871;SDS011;11603;44.910;8.630;2023-04-27T12:25:58;16.33;;;7.97;;
22871;SDS011;11603;44.910;8.630;2023-04-27T12:28:23;14.82;;;7.55;;
22871;SDS011;11603;44.910;8.630;2023-04-27T12:30:49;14.13;;;8.00;;
22871;SDS011;11603;44.910;8.630;2023-04-27T12:33:15;17.45;;;8.55;;
22871;SDS011;11603;44.910;8.630;2023-04-27T12:35:41;14.40;;;7.78;;
22871;SDS011;11603;44.910;8.630;2023-04-27T12:38:07;19.50;;;6.85;;
22871;SDS011;11603;44.910;8.630;2023-04-27T12:40:32;11.52;;;6.93;;
22871;SDS011;11603;44.910;8.630;2023-04-27T12:42:58;14.45;;;7.53;;
22871;SDS011;11603;44.910;8.630;2023-04-27T12:45:24;13.13;;;7.15;;
22871;SDS011;11603;44.910;8.630;2023-04-27T12:47:49;11.65;;;7.45;;
22871;SDS011;11603;44.910;8.630;2023-04-27T12:50:15;11.35;;;6.60;;
22871;SDS011;11603;44.910;8.630;2023-04-27T12:52:41;11.85;;;6.68;;
22871;SDS011;11603;44.910;8.630;2023-04-27T12:55:06;12.45;;;6.90;;
22871;SDS011;11603;44.910;8.630;2023-04-27T12:57:33;13.73;;;6.57;;
22871;SDS011;11603;44.910;8.630;2023-04-27T12:59:58;11.32;;;6.00;;
22871;SDS011;11603;44.910;8.630;2023-04-27T13:02:25;11.48;;;5.88;;
22871;SDS011;11603;44.910;8.630;2023-04-27T13:04:51;9.15;;;5.43;;
22871;SDS011;11603;44.910;8.630;2023-04-27T13:07:16;9.38;;;5.10;;
22871;SDS011;11603;44.910;8.630;2023-04-27T13:09:43;10.88;;;5.18;;
22871;SDS011;11603;44.910;8.630;2023-04-27T13:12:08;9.32;;;5.60;;
22871;SDS011;11603;44.910;8.630;2023-04-27T13:14:34;7.32;;;4.75;;
22871;SDS011;11603;44.910;8.630;2023-04-27T13:16:59;13.15;;;5.63;;
22871;SDS011;11603;44.910;8.630;2023-04-27T13:19:26;8.85;;;4.82;;
22871;SDS011;11603;44.910;8.630;2023-04-27T13:21:52;10.52;;;4.38;;
22871;SDS011;11603;44.910;8.630;2023-04-27T13:24:17;9.57;;;4.50;;
22871;SDS011;11603;44.910;8.630;2023-04-27T13:26:43;9.95;;;4.43;;
22871;SDS011;11603;44.910;8.630;2023-04-27T13:29:10;7.63;;;4.45;;
22871;SDS011;11603;44.910;8.630;2023-04-27T13:31:35;13.38;;;4.72;;
22871;SDS011;11603;44.910;8.630;2023-04-27T13:34:00;9.75;;;4.72;;
22871;SDS011;11603;44.910;8.630;2023-04-27T13:36:28;8.02;;;4.22;;
22871;SDS011;11603;44.910;8.630;2023-04-27T13:38:53;9.73;;;4.70;;
22871;SDS011;11603;44.910;8.630;2023-04-27T13:41:19;10.25;;;4.07;;
22871;SDS011;11603;44.910;8.630;2023-04-27T13:43:45;9.43;;;4.93;;
22871;SDS011;11603;44.910;8.630;2023-04-27T13:46:10;10.60;;;5.45;;
22871;SDS011;11603;44.910;8.630;2023-04-27T13:48:37;9.05;;;5.20;;
22871;SDS011;11603;44.910;8.630;2023-04-27T13:51:03;8.20;;;4.97;;
22871;SDS011;11603;44.910;8.630;2023-04-27T13:53:28;10.40;;;5.40;;
22871;SDS011;11603;44.910;8.630;2023-04-27T13:55:54;12.93;;;5.28;;
22871;SDS011;11603;44.910;8.630;2023-04-27T13:58:21;8.82;;;4.88;;
22871;SDS011;11603;44.910;8.630;2023-04-27T14:00:46;9.73;;;5.07;;
22871;SDS011;11603;44.910;8.630;2023-04-27T14:03:13;12.98;;;5.00;;
22871;SDS011;11603;44.910;8.630;2023-04-27T14:05:40;9.00;;;4.43;;
22871;SDS011;11603;44.910;8.630;2023-04-27T14:08:06;9.52;;;4.93;;
22871;SDS011;11603;44.910;8.630;2023-04-27T14:10:32;7.95;;;5.18;;
22871;SDS011;11603;44.910;8.630;2023-04-27T14:12:57;8.27;;;4.90;;
22871;SDS011;11603;44.910;8.630;2023-04-27T14:15:23;10.23;;;4.90;;
22871;SDS011;11603;44.910;8.630;2023-04-27T14:17:48;6.63;;;4.22;;
22871;SDS011;11603;44.910;8.630;2023-04-27T14:20:14;34.03;;;5.43;;
22871;SDS011;11603;44.910;8.630;2023-04-27T14:22:39;9.55;;;4.53;;
22871;SDS011;11603;44.910;8.630;2023-04-27T14:25:05;8.10;;;4.47;;
22871;SDS011;11603;44.910;8.630;2023-04-27T14:27:31;7.88;;;4.13;;
22871;SDS011;11603;44.910;8.630;2023-04-27T14:29:56;7.60;;;4.35;;
22871;SDS011;11603;44.910;8.630;2023-04-27T14:32:22;14.27;;;4.57;;
22871;SDS011;11603;44.910;8.630;2023-04-27T14:34:47;8.90;;;4.40;;
22871;SDS011;11603;44.910;8.630;2023-04-27T14:37:13;8.90;;;4.47;;
22871;SDS011;11603;44.910;8.630;2023-04-27T14:39:38;8.90;;;4.25;;
22871;SDS011;11603;44.910;8.630;2023-04-27T14:42:04;9.10;;;4.70;;
22871;SDS011;11603;44.910;8.630;2023-04-27T14:44:29;6.90;;;4.35;;
22871;SDS011;11603;44.910;8.630;2023-04-27T14:46:55;11.20;;;4.03;;
22871;SDS011;11603;44.910;8.630;2023-04-27T14:49:22;5.97;;;3.70;;
22871;SDS011;11603;44.910;8.630;2023-04-27T14:51:48;7.75;;;4.10;;